createdAt,value
2023-03-11T00:01:49.829Z,1.27
2023-03-11T00:04:17.824Z,1.16
2023-03-11T00:06:45.826Z,1.11
2023-03-11T00:09:14.044Z,1.08
2023-03-11T00:11:42.012Z,1.03
2023-03-11T00:14:09.960Z,0.95
2023-03-11T00:16:38.261Z,1.00
2023-03-11T00:19:07.585Z,1.02
2023-03-11T00:21:35.510Z,1.10
2023-03-11T00:24:03.755Z,1.13
2023-03-11T00:26:31.703Z,1.09
2023-03-11T00:28:59.796Z,1.16
2023-03-11T00:31:27.836Z,1.12
2023-03-11T00:33:57.314Z,1.16
2023-03-11T00:36:31.560Z,1.21
2023-03-11T00:39:00.614Z,1.18
2023-03-11T00:41:29.069Z,1.14
2023-03-11T00:43:57.211Z,1.18
2023-03-11T00:46:25.134Z,1.19
2023-03-11T00:48:54.189Z,1.20
2023-03-11T00:51:22.112Z,1.20
2023-03-11T00:53:51.438Z,1.20
2023-03-11T00:56:19.748Z,1.16
2023-03-11T00:58:47.983Z,1.14
2023-03-11T01:01:18.520Z,1.15
2023-03-11T01:03:47.455Z,1.16
2023-03-11T01:06:16.124Z,1.12
2023-03-11T01:08:44.675Z,1.16
2023-03-11T01:11:13.981Z,1.13
2023-03-11T01:13:42.085Z,1.08
2023-03-11T01:16:10.757Z,1.10
2023-03-11T01:18:38.998Z,1.16
2023-03-11T01:21:07.238Z,1.20
2023-03-11T01:23:35.600Z,1.12
2023-03-11T01:26:05.267Z,1.14
2023-03-11T01:28:35.942Z,1.16
2023-03-11T01:31:04.205Z,1.11
2023-03-11T01:33:32.353Z,1.14
2023-03-11T01:36:00.864Z,1.13
2023-03-11T01:38:29.985Z,1.17
2023-03-11T01:40:58.281Z,1.21
2023-03-11T01:43:48.701Z,1.24
2023-03-11T01:46:23.218Z,1.26
2023-03-11T01:48:52.775Z,1.22
2023-03-11T01:51:25.927Z,1.22
2023-03-11T01:53:54.928Z,1.27
2023-03-11T01:56:24.878Z,1.34
2023-03-11T01:58:55.150Z,1.21
2023-03-11T02:01:23.901Z,1.28
2023-03-11T02:03:52.152Z,1.17
2023-03-11T02:06:22.835Z,1.24
2023-03-11T02:08:51.478Z,1.28
2023-03-11T02:11:24.960Z,1.31
2023-03-11T02:13:55.710Z,1.43
2023-03-11T02:16:25.882Z,1.52
2023-03-11T02:18:53.955Z,1.51
2023-03-11T02:21:26.449Z,1.56
2023-03-11T02:23:59.472Z,1.64
2023-03-11T02:26:31.860Z,1.70
2023-03-11T02:29:02.588Z,1.77
2023-03-11T02:31:31.155Z,1.63
2023-03-11T02:34:01.238Z,1.72
2023-03-11T02:36:34.690Z,1.70
2023-03-11T02:39:03.971Z,1.58
2023-03-11T02:41:39.360Z,1.62
2023-03-11T02:44:11.531Z,1.57
2023-03-11T02:46:42.509Z,1.64
2023-03-11T02:49:12.848Z,1.59
2023-03-11T02:51:40.766Z,1.56
2023-03-11T02:54:08.653Z,1.52
2023-03-11T02:56:37.680Z,1.60
2023-03-11T02:59:06.138Z,1.55
2023-03-11T03:01:35.469Z,1.54
2023-03-11T03:04:03.630Z,1.57
2023-03-11T03:06:33.685Z,1.53
2023-03-11T03:09:01.758Z,1.61
2023-03-11T03:11:29.716Z,1.60
2023-03-11T03:13:57.829Z,1.57
2023-03-11T03:16:26.004Z,1.63
2023-03-11T03:18:56.610Z,1.62
2023-03-11T03:21:24.592Z,1.60
2023-03-11T03:23:53.089Z,1.46
2023-03-11T03:26:20.962Z,1.49
2023-03-11T03:28:50.531Z,1.52
2023-03-11T03:31:18.890Z,1.52
2023-03-11T03:33:46.953Z,1.49
2023-03-11T03:36:16.887Z,1.54
2023-03-11T03:38:49.854Z,1.39
2023-03-11T03:41:18.471Z,1.41
2023-03-11T03:43:46.606Z,1.38
2023-03-11T03:46:14.806Z,1.33
2023-03-11T03:48:47.803Z,1.41
2023-03-11T03:51:18.700Z,1.46
2023-03-11T03:54:00.142Z,1.38
2023-03-11T03:56:43.158Z,1.42
2023-03-11T03:59:11.416Z,1.38
2023-03-11T04:01:43.824Z,1.40
2023-03-11T04:04:11.812Z,1.41
2023-03-11T04:06:41.364Z,1.37
2023-03-11T04:09:10.816Z,1.38
2023-03-11T04:11:38.894Z,1.38
2023-03-11T04:14:07.664Z,1.39
2023-03-11T04:16:43.019Z,1.41
2023-03-11T04:19:13.424Z,1.45
2023-03-11T04:21:43.151Z,1.48
2023-03-11T04:24:11.636Z,1.51
2023-03-11T04:26:40.622Z,1.42
2023-03-11T04:29:12.798Z,1.50
2023-03-11T04:31:44.496Z,1.49
2023-03-11T04:34:12.757Z,1.51
2023-03-11T04:36:42.936Z,1.43
2023-03-11T04:39:12.664Z,1.37
2023-03-11T04:41:44.015Z,1.40
2023-03-11T04:44:15.901Z,1.38
2023-03-11T04:46:43.969Z,1.29
2023-03-11T04:49:12.290Z,1.37
2023-03-11T04:51:40.887Z,1.43
2023-03-11T04:54:10.944Z,1.50
2023-03-11T04:56:39.640Z,1.54
2023-03-11T04:59:08.161Z,1.58
2023-03-11T05:01:38.451Z,1.52
2023-03-11T05:04:08.975Z,1.55
2023-03-11T05:06:36.986Z,1.49
2023-03-11T05:09:05.895Z,1.60
2023-03-11T05:11:38.492Z,1.58
2023-03-11T05:14:06.508Z,1.58
2023-03-11T05:16:34.581Z,1.56
2023-03-11T05:19:22.578Z,1.57
2023-03-11T05:21:51.070Z,1.54
2023-03-11T05:24:20.733Z,1.52
2023-03-11T05:26:50.008Z,1.52
2023-03-11T05:29:19.162Z,1.44
2023-03-11T05:31:48.117Z,1.45
2023-03-11T05:34:16.526Z,1.54
2023-03-11T05:36:45.150Z,1.47
2023-03-11T05:39:14.218Z,1.52
2023-03-11T05:41:42.389Z,1.52
2023-03-11T05:44:11.924Z,1.54
2023-03-11T05:46:40.046Z,1.45
2023-03-11T05:49:08.384Z,1.58
2023-03-11T05:51:37.655Z,1.42
2023-03-11T05:54:11.462Z,1.43
2023-03-11T05:56:41.640Z,1.41
2023-03-11T05:59:13.223Z,1.42
2023-03-11T06:01:43.188Z,1.39
2023-03-11T06:04:12.327Z,1.41
2023-03-11T06:06:41.580Z,1.38
2023-03-11T06:09:12.889Z,1.46
2023-03-11T06:11:41.256Z,1.47
2023-03-11T06:14:13.569Z,1.44
2023-03-11T06:16:43.423Z,1.45
2023-03-11T06:19:11.955Z,1.44
2023-03-11T06:21:44.420Z,1.54
2023-03-11T06:24:12.691Z,1.51
2023-03-11T06:26:40.732Z,1.48
2023-03-11T06:29:10.127Z,1.44
2023-03-11T06:31:42.168Z,1.50
2023-03-11T06:34:13.172Z,1.44
2023-03-11T06:36:41.402Z,1.35
2023-03-11T06:39:09.866Z,1.47
2023-03-11T06:41:38.692Z,1.38
2023-03-11T06:44:08.364Z,1.42
2023-03-11T06:46:39.109Z,1.42
2023-03-11T06:49:07.422Z,1.37
2023-03-11T06:51:35.710Z,1.40
2023-03-11T06:54:04.831Z,1.43
2023-03-11T06:56:33.813Z,1.69
2023-03-11T06:59:06.374Z,1.71
2023-03-11T07:01:35.692Z,1.59
2023-03-11T07:04:07.733Z,1.62
2023-03-11T07:06:38.195Z,1.56
2023-03-11T07:09:25.304Z,1.60
2023-03-11T07:11:53.841Z,1.62
2023-03-11T07:14:28.685Z,1.61
2023-03-11T07:16:57.801Z,1.72
2023-03-11T07:19:46.085Z,1.66
2023-03-11T07:22:15.402Z,1.90
2023-03-11T07:24:46.523Z,2.02
2023-03-11T07:27:15.203Z,1.91
2023-03-11T07:29:43.269Z,1.95
2023-03-11T07:32:11.837Z,1.85
2023-03-11T07:34:39.932Z,1.94
2023-03-11T07:37:09.997Z,1.95
2023-03-11T07:39:38.400Z,1.83
2023-03-11T07:42:07.164Z,1.84
2023-03-11T07:44:36.646Z,1.87
2023-03-11T07:47:04.812Z,1.96
2023-03-11T07:49:35.016Z,2.04
2023-03-11T07:52:02.968Z,1.96
2023-03-11T07:54:32.238Z,1.93
2023-03-11T07:57:00.185Z,1.92
2023-03-11T07:59:28.078Z,1.87
2023-03-11T08:01:57.008Z,1.92
2023-03-11T08:04:25.061Z,2.01
2023-03-11T08:06:53.080Z,1.97
2023-03-11T08:09:20.965Z,2.00
2023-03-11T08:11:50.209Z,2.19
2023-03-11T08:14:18.475Z,2.38
2023-03-11T08:16:46.354Z,2.39
2023-03-11T08:19:14.545Z,2.34
2023-03-11T08:21:42.455Z,2.39
2023-03-11T08:24:12.442Z,2.54
2023-03-11T08:26:40.502Z,2.64
2023-03-11T08:29:10.065Z,2.61
2023-03-11T08:31:38.037Z,2.69
2023-03-11T08:34:08.313Z,2.51
2023-03-11T08:36:36.675Z,2.57
2023-03-11T08:39:05.123Z,2.68
2023-03-11T08:41:33.066Z,2.56
2023-03-11T08:44:01.202Z,2.31
2023-03-11T08:46:32.763Z,2.29
2023-03-11T08:49:01.576Z,2.22
2023-03-11T08:51:30.700Z,2.26
2023-03-11T08:53:58.765Z,2.36
2023-03-11T08:56:26.798Z,2.13
2023-03-11T08:58:54.916Z,2.16
2023-03-11T09:01:23.734Z,2.44
2023-03-11T09:03:53.229Z,2.43
2023-03-11T09:06:21.215Z,2.50
2023-03-11T09:08:49.996Z,2.65
2023-03-11T09:11:19.123Z,2.70
2023-03-11T09:13:47.044Z,2.60
2023-03-11T09:16:15.912Z,2.46
2023-03-11T09:18:44.014Z,2.36
2023-03-11T09:21:13.882Z,2.58
2023-03-11T09:23:44.197Z,2.58
2023-03-11T09:26:12.879Z,2.78
2023-03-11T09:28:41.463Z,2.89
2023-03-11T09:31:09.700Z,2.93
2023-03-11T09:33:39.411Z,3.11
2023-03-11T09:36:08.563Z,3.27
2023-03-11T09:38:37.832Z,3.78
2023-03-11T09:41:09.838Z,4.16
2023-03-11T09:43:51.735Z,4.27
2023-03-11T09:46:58.496Z,3.92
2023-03-11T09:49:30.465Z,3.77
2023-03-11T09:52:04.633Z,4.06
2023-03-11T09:54:38.819Z,4.08
2023-03-11T09:57:07.905Z,3.55
2023-03-11T09:59:37.385Z,3.35
2023-03-11T10:02:06.320Z,3.10
2023-03-11T10:04:38.832Z,3.78
2023-03-11T10:07:11.453Z,4.15
2023-03-11T10:09:52.491Z,4.34
2023-03-11T10:12:28.392Z,4.15
2023-03-11T10:15:05.925Z,4.39
2023-03-11T10:17:59.203Z,4.41
2023-03-11T10:20:31.377Z,4.80
2023-03-11T10:23:07.411Z,4.24
2023-03-11T10:25:47.511Z,4.03
2023-03-11T10:28:18.011Z,3.76
2023-03-11T10:30:54.281Z,4.07
2023-03-11T10:33:30.539Z,4.63
2023-03-11T10:36:05.895Z,4.72
2023-03-11T10:38:37.386Z,4.92
2023-03-11T10:41:13.188Z,5.26
2023-03-11T10:43:43.117Z,5.15
2023-03-11T10:46:16.759Z,4.99
2023-03-11T10:48:44.850Z,4.94
2023-03-11T10:51:18.038Z,5.41
2023-03-11T10:53:46.211Z,5.89
2023-03-11T10:56:27.990Z,5.44
2023-03-11T10:58:56.495Z,5.69
2023-03-11T11:01:24.997Z,5.74
2023-03-11T11:03:55.986Z,5.34
2023-03-11T11:06:27.527Z,5.76
2023-03-11T11:09:16.148Z,5.41
2023-03-11T11:12:02.290Z,5.92
2023-03-11T11:14:47.339Z,6.04
2023-03-11T11:17:20.058Z,6.13
2023-03-11T11:19:49.426Z,6.16
2023-03-11T11:22:19.244Z,5.33
2023-03-11T11:24:48.061Z,5.62
2023-03-11T11:27:20.195Z,5.30
2023-03-11T11:29:49.056Z,5.08
2023-03-11T11:32:20.925Z,4.25
2023-03-11T11:34:59.152Z,4.61
2023-03-11T11:37:31.945Z,5.49
2023-03-11T11:40:11.526Z,5.58
2023-03-11T11:42:43.944Z,6.06
2023-03-11T11:45:17.809Z,5.57
2023-03-11T11:47:48.486Z,4.88
2023-03-11T11:50:20.188Z,5.04
2023-03-11T11:52:52.587Z,5.21
2023-03-11T11:55:24.965Z,4.87
2023-03-11T11:57:56.013Z,5.62
2023-03-11T12:00:28.306Z,5.23
2023-03-11T12:03:13.760Z,4.85
2023-03-11T12:05:47.242Z,5.62
2023-03-11T12:08:19.239Z,6.04
2023-03-11T12:10:53.163Z,6.36
2023-03-11T12:13:34.934Z,6.44
2023-03-11T12:16:06.284Z,6.61
2023-03-11T12:18:39.944Z,6.83
2023-03-11T12:21:23.929Z,6.95
2023-03-11T12:24:04.048Z,6.95
2023-03-11T12:26:34.582Z,7.49
2023-03-11T12:29:05.917Z,7.90
2023-03-11T12:31:38.980Z,6.79
2023-03-11T12:34:08.895Z,7.06
2023-03-11T12:36:39.147Z,7.69
2023-03-11T12:39:09.113Z,7.77
2023-03-11T12:41:43.958Z,7.18
2023-03-11T12:44:28.862Z,7.11
2023-03-11T12:47:35.796Z,7.16
2023-03-11T12:50:40.221Z,7.15
2023-03-11T12:53:17.580Z,7.42
2023-03-11T12:56:01.315Z,7.86
2023-03-11T12:58:38.037Z,8.47
2023-03-11T13:01:44.077Z,8.59
2023-03-11T13:04:37.228Z,8.82
2023-03-11T13:07:43.416Z,7.97
2023-03-11T13:10:40.893Z,8.45
2023-03-11T13:13:32.239Z,9.11
2023-03-11T13:16:36.792Z,8.64
2023-03-11T13:19:38.629Z,8.53
2023-03-11T13:22:49.799Z,8.45
2023-03-11T13:25:30.438Z,9.06
2023-03-11T13:28:06.183Z,10.11
2023-03-11T13:30:36.211Z,9.12
2023-03-11T13:33:17.800Z,8.95
2023-03-11T13:36:01.807Z,9.90
2023-03-11T13:38:44.512Z,9.45
2023-03-11T13:41:17.853Z,9.58
2023-03-11T13:43:47.283Z,9.18
2023-03-11T13:46:24.487Z,8.91
2023-03-11T13:48:56.655Z,9.53
2023-03-11T13:51:33.596Z,9.68
2023-03-11T13:54:03.960Z,9.94
2023-03-11T13:56:34.132Z,9.55
2023-03-11T13:59:17.748Z,9.42
2023-03-11T14:01:52.560Z,9.80
2023-03-11T14:04:22.293Z,10.30
2023-03-11T14:06:52.206Z,10.88
2023-03-11T14:09:21.300Z,10.49
2023-03-11T14:11:49.467Z,9.85
2023-03-11T14:14:31.501Z,10.79
2023-03-11T14:17:01.553Z,9.84
2023-03-11T14:19:29.678Z,9.15
2023-03-11T14:21:58.962Z,8.40
2023-03-11T14:24:29.319Z,8.79
2023-03-11T14:26:59.089Z,8.08
2023-03-11T14:29:31.902Z,7.10
2023-03-11T14:32:00.084Z,6.86
2023-03-11T14:34:30.265Z,6.84
2023-03-11T14:37:00.923Z,6.65
2023-03-11T14:39:31.243Z,7.07
2023-03-11T14:42:04.074Z,7.15
2023-03-11T14:44:35.289Z,7.62
2023-03-11T14:47:10.054Z,7.32
2023-03-11T14:49:38.453Z,7.44
2023-03-11T14:52:11.310Z,7.91
2023-03-11T14:54:39.946Z,7.80
2023-03-11T14:57:11.844Z,7.41
2023-03-11T14:59:40.282Z,7.05
2023-03-11T15:02:32.839Z,7.13
2023-03-11T15:05:03.467Z,6.88
2023-03-11T15:07:33.498Z,6.37
2023-03-11T15:10:02.672Z,6.20
2023-03-11T15:12:33.056Z,6.13
2023-03-11T15:15:01.049Z,6.00
2023-03-11T15:17:38.568Z,6.06
2023-03-11T15:20:24.852Z,5.82
2023-03-11T15:23:01.816Z,5.77
2023-03-11T15:25:31.938Z,5.65
2023-03-11T15:28:00.166Z,5.67
2023-03-11T15:30:30.389Z,5.58
2023-03-11T15:32:59.282Z,5.57
2023-03-11T15:35:28.691Z,5.56
2023-03-11T15:38:21.248Z,5.60
2023-03-11T15:40:54.520Z,5.45
2023-03-11T15:43:24.655Z,5.30
2023-03-11T15:45:54.643Z,5.26
2023-03-11T15:48:23.115Z,5.16
2023-03-11T15:50:54.523Z,5.31
2023-03-11T15:53:25.810Z,5.37
2023-03-11T15:55:54.380Z,5.35
2023-03-11T15:58:22.669Z,5.33
2023-03-11T16:00:52.158Z,5.41
2023-03-11T16:03:20.529Z,5.46
2023-03-11T16:05:48.751Z,5.41
2023-03-11T16:08:17.200Z,5.36
2023-03-11T16:10:46.528Z,5.31
2023-03-11T16:13:16.160Z,5.38
2023-03-11T16:15:47.174Z,5.36
2023-03-11T16:18:16.964Z,5.24
2023-03-11T16:20:47.727Z,4.99
2023-03-11T16:23:19.600Z,4.29
2023-03-11T16:25:49.732Z,3.72
2023-03-11T16:28:18.612Z,3.69
2023-03-11T16:30:46.666Z,3.63
2023-03-11T16:33:14.900Z,3.47
2023-03-11T16:35:42.825Z,3.43
2023-03-11T16:38:10.939Z,3.38
2023-03-11T16:40:38.825Z,3.39
2023-03-11T16:43:10.363Z,3.49
2023-03-11T16:45:38.520Z,3.44
2023-03-11T16:48:07.241Z,3.52
2023-03-11T16:50:37.464Z,3.42
2023-03-11T16:53:06.992Z,3.42
2023-03-11T16:55:35.002Z,3.46
2023-03-11T16:58:03.058Z,3.46
2023-03-11T17:00:32.521Z,3.63
2023-03-11T17:03:00.362Z,3.57
2023-03-11T17:05:28.763Z,3.64
2023-03-11T17:08:00.736Z,3.67
2023-03-11T17:10:29.342Z,3.78
2023-03-11T17:12:57.659Z,3.81
2023-03-11T17:15:25.642Z,3.67
2023-03-11T17:17:54.914Z,3.67
2023-03-11T17:20:22.851Z,3.70
2023-03-11T17:22:50.832Z,3.75
2023-03-11T17:25:19.006Z,3.78
2023-03-11T17:27:46.984Z,3.81
2023-03-11T17:30:24.283Z,3.84
2023-03-11T17:33:00.080Z,3.82
2023-03-11T17:35:28.156Z,3.89
2023-03-11T17:37:56.243Z,3.70
2023-03-11T17:40:24.358Z,3.49
2023-03-11T17:42:52.333Z,3.42
2023-03-11T17:45:20.189Z,3.31
2023-03-11T17:47:48.284Z,3.35
2023-03-11T17:50:17.655Z,3.44
2023-03-11T17:52:47.197Z,3.39
2023-03-11T17:55:16.138Z,3.34
2023-03-11T17:57:46.176Z,3.33
2023-03-11T18:00:15.824Z,3.31
2023-03-11T18:02:43.934Z,3.24
2023-03-11T18:05:12.606Z,3.09
2023-03-11T18:07:42.141Z,2.97
2023-03-11T18:10:11.820Z,2.82
2023-03-11T18:12:40.295Z,2.83
2023-03-11T18:15:14.454Z,2.62
2023-03-11T18:17:42.447Z,2.58
2023-03-11T18:20:11.580Z,2.50
2023-03-11T18:22:44.374Z,2.58
2023-03-11T18:25:15.603Z,2.57
2023-03-11T18:27:44.007Z,2.66
2023-03-11T18:30:13.180Z,2.72
2023-03-11T18:32:41.413Z,2.78
2023-03-11T18:35:10.445Z,2.74
2023-03-11T18:37:38.381Z,2.82
2023-03-11T18:40:08.068Z,2.90
2023-03-11T18:42:37.622Z,2.82
2023-03-11T18:45:06.395Z,2.93
2023-03-11T18:47:35.450Z,2.97
2023-03-11T18:50:03.422Z,2.99
2023-03-11T18:52:31.355Z,3.01
2023-03-11T18:54:59.245Z,3.06
2023-03-11T18:57:27.588Z,3.08
2023-03-11T18:59:56.832Z,3.21
2023-03-11T19:02:26.120Z,3.19
2023-03-11T19:04:54.171Z,3.16
2023-03-11T19:07:22.702Z,3.18
2023-03-11T19:09:50.856Z,3.08
2023-03-11T19:12:18.750Z,3.00
2023-03-11T19:14:46.721Z,3.02
2023-03-11T19:17:16.502Z,3.02
2023-03-11T19:19:44.629Z,3.03
2023-03-11T19:22:12.523Z,3.01
2023-03-11T19:24:40.673Z,2.89
2023-03-11T19:27:08.646Z,2.90
2023-03-11T19:29:36.618Z,2.89
2023-03-11T19:32:04.842Z,2.77
2023-03-11T19:34:34.049Z,2.75
2023-03-11T19:37:02.076Z,2.76
2023-03-11T19:39:30.257Z,2.69
2023-03-11T19:41:58.903Z,2.77
2023-03-11T19:44:27.039Z,2.79
2023-03-11T19:46:55.000Z,2.80
2023-03-11T19:49:23.038Z,2.82
2023-03-11T19:51:52.947Z,2.88
2023-03-11T19:54:21.144Z,2.84
2023-03-11T19:56:49.723Z,2.89
2023-03-11T19:59:17.769Z,2.97
2023-03-11T20:01:45.724Z,2.87
2023-03-11T20:04:15.285Z,2.84
2023-03-11T20:06:43.996Z,2.90
2023-03-11T20:09:15.637Z,2.88
2023-03-11T20:11:44.309Z,2.92
2023-03-11T20:14:12.893Z,2.89
2023-03-11T20:16:41.012Z,2.97
2023-03-11T20:19:09.098Z,2.92
2023-03-11T20:21:39.385Z,2.87
2023-03-11T20:24:08.382Z,2.90
2023-03-11T20:26:38.493Z,2.89
2023-03-11T20:29:06.646Z,2.95
2023-03-11T20:31:34.838Z,2.91
2023-03-11T20:34:03.056Z,2.96
2023-03-11T20:36:33.991Z,2.94
2023-03-11T20:39:02.069Z,2.97
2023-03-11T20:41:35.425Z,2.99
2023-03-11T20:44:06.154Z,3.09
2023-03-11T20:46:34.346Z,3.07
2023-03-11T20:49:02.493Z,3.03
2023-03-11T20:51:30.707Z,3.02
2023-03-11T20:53:58.635Z,3.01
2023-03-11T20:56:27.576Z,3.10
2023-03-11T20:58:58.698Z,3.01
2023-03-11T21:01:29.655Z,3.02
2023-03-11T21:03:59.231Z,3.05
2023-03-11T21:06:29.668Z,2.89
2023-03-11T21:08:59.184Z,2.91
2023-03-11T21:11:27.831Z,2.92
2023-03-11T21:13:56.239Z,3.01
2023-03-11T21:16:26.960Z,3.05
2023-03-11T21:18:56.816Z,3.10
2023-03-11T21:21:25.102Z,3.01
2023-03-11T21:23:53.643Z,2.94
2023-03-11T21:26:21.687Z,2.97
2023-03-11T21:28:49.886Z,2.95
2023-03-11T21:31:19.518Z,2.92
2023-03-11T21:33:47.725Z,3.02
2023-03-11T21:36:17.852Z,2.92
2023-03-11T21:38:45.885Z,3.04
2023-03-11T21:41:15.903Z,2.99
2023-03-11T21:43:44.566Z,2.91
2023-03-11T21:46:14.589Z,2.94
2023-03-11T21:48:42.753Z,2.88
2023-03-11T21:51:10.835Z,2.74
2023-03-11T21:53:40.277Z,2.89
2023-03-11T21:56:09.972Z,2.84
2023-03-11T21:58:38.179Z,2.88
2023-03-11T22:01:07.028Z,2.84
2023-03-11T22:03:36.052Z,2.85
2023-03-11T22:06:06.383Z,2.80
2023-03-11T22:08:34.651Z,2.76
2023-03-11T22:11:04.209Z,2.76
2023-03-11T22:13:32.253Z,2.75
2023-03-11T22:16:03.798Z,2.71
2023-03-11T22:18:32.022Z,2.78
2023-03-11T22:21:00.153Z,2.81
2023-03-11T22:23:28.330Z,2.65
2023-03-11T22:25:56.692Z,2.75
2023-03-11T22:28:26.244Z,2.73
2023-03-11T22:30:54.754Z,2.82
2023-03-11T22:33:22.844Z,2.76
2023-03-11T22:35:52.261Z,2.73
2023-03-11T22:38:20.256Z,2.62
2023-03-11T22:40:48.248Z,2.73
2023-03-11T22:43:16.229Z,2.62
2023-03-11T22:45:45.617Z,2.65
2023-03-11T22:48:13.616Z,2.72
2023-03-11T22:50:41.963Z,2.72
2023-03-11T22:53:10.463Z,2.68
2023-03-11T22:55:40.394Z,2.59
2023-03-11T22:58:08.850Z,2.62
2023-03-11T23:00:36.971Z,2.71
2023-03-11T23:03:07.189Z,2.65
2023-03-11T23:05:41.629Z,2.58
2023-03-11T23:08:10.594Z,2.71
2023-03-11T23:10:40.690Z,2.72
2023-03-11T23:13:08.944Z,2.56
2023-03-11T23:15:37.016Z,2.59
2023-03-11T23:18:06.619Z,2.69
2023-03-11T23:20:36.172Z,2.66
2023-03-11T23:23:04.347Z,2.50
2023-03-11T23:25:32.696Z,2.47
2023-03-11T23:28:02.369Z,2.34
2023-03-11T23:30:30.660Z,2.24
2023-03-11T23:33:00.098Z,2.19
2023-03-11T23:35:29.736Z,2.14
2023-03-11T23:37:57.579Z,2.14
2023-03-11T23:40:25.715Z,2.09
2023-03-11T23:42:53.692Z,2.13
2023-03-11T23:45:21.595Z,2.18
2023-03-11T23:47:49.484Z,2.23
2023-03-11T23:50:17.479Z,2.24
2023-03-11T23:52:46.940Z,2.16
2023-03-11T23:55:14.878Z,2.23
2023-03-11T23:57:42.787Z,2.20
